sensor_id;sensor_type;location;lat;lon;timestamp;P1;durP1;ratioP1;P2;durP2;ratioP2
23113;SDS011;11726;50.122;8.832;2023-03-31T00:02:11;5.07;;;1.70;;
23113;SDS011;11726;50.122;8.832;2023-03-31T00:04:42;6.95;;;1.60;;
23113;SDS011;11726;50.122;8.832;2023-03-31T00:07:14;7.80;;;1.48;;
23113;SDS011;11726;50.122;8.832;2023-03-31T00:09:41;6.82;;;1.73;;
23113;SDS011;11726;50.122;8.832;2023-03-31T00:12:12;6.15;;;1.60;;
23113;SDS011;11726;50.122;8.832;2023-03-31T00:14:39;6.28;;;1.58;;
23113;SDS011;11726;50.122;8.832;2023-03-31T00:17:06;8.88;;;1.40;;
23113;SDS011;11726;50.122;8.832;2023-03-31T00:19:34;5.93;;;1.40;;
23113;SDS011;11726;50.122;8.832;2023-03-31T00:22:01;5.13;;;1.33;;
23113;SDS011;11726;50.122;8.832;2023-03-31T00:24:30;7.75;;;1.70;;
23113;SDS011;11726;50.122;8.832;2023-03-31T00:26:58;5.68;;;1.40;;
23113;SDS011;11726;50.122;8.832;2023-03-31T00:29:26;8.48;;;2.00;;
23113;SDS011;11726;50.122;8.832;2023-03-31T00:31:53;4.55;;;1.60;;
23113;SDS011;11726;50.122;8.832;2023-03-31T00:34:20;6.03;;;1.38;;
23113;SDS011;11726;50.122;8.832;2023-03-31T00:36:47;6.85;;;1.30;;
23113;SDS011;11726;50.122;8.832;2023-03-31T00:39:15;6.32;;;1.45;;
23113;SDS011;11726;50.122;8.832;2023-03-31T00:41:43;6.80;;;1.60;;
23113;SDS011;11726;50.122;8.832;2023-03-31T00:44:12;9.73;;;2.05;;
23113;SDS011;11726;50.122;8.832;2023-03-31T00:51:55;8.38;;;1.90;;
23113;SDS011;11726;50.122;8.832;2023-03-31T00:54:27;6.97;;;1.80;;
23113;SDS011;11726;50.122;8.832;2023-03-31T00:56:55;4.63;;;1.60;;
23113;SDS011;11726;50.122;8.832;2023-03-31T00:59:24;6.18;;;1.40;;
23113;SDS011;11726;50.122;8.832;2023-03-31T01:01:54;6.80;;;1.70;;
23113;SDS011;11726;50.122;8.832;2023-03-31T01:04:24;6.40;;;1.80;;
23113;SDS011;11726;50.122;8.832;2023-03-31T01:06:56;6.63;;;1.80;;
23113;SDS011;11726;50.122;8.832;2023-03-31T01:09:29;8.55;;;2.15;;
23113;SDS011;11726;50.122;8.832;2023-03-31T01:11:55;7.72;;;2.08;;
23113;SDS011;11726;50.122;8.832;2023-03-31T01:14:23;6.95;;;1.80;;
23113;SDS011;11726;50.122;8.832;2023-03-31T01:16:50;6.47;;;2.03;;
23113;SDS011;11726;50.122;8.832;2023-03-31T01:19:29;5.18;;;1.63;;
23113;SDS011;11726;50.122;8.832;2023-03-31T01:27:46;7.50;;;1.90;;
23113;SDS011;11726;50.122;8.832;2023-03-31T01:30:36;9.40;;;1.92;;
23113;SDS011;11726;50.122;8.832;2023-03-31T01:33:25;6.68;;;1.58;;
23113;SDS011;11726;50.122;8.832;2023-03-31T01:36:34;4.88;;;1.60;;
23113;SDS011;11726;50.122;8.832;2023-03-31T01:45:22;5.72;;;1.45;;
23113;SDS011;11726;50.122;8.832;2023-03-31T01:48:19;10.27;;;2.15;;
23113;SDS011;11726;50.122;8.832;2023-03-31T01:51:10;8.50;;;1.98;;
23113;SDS011;11726;50.122;8.832;2023-03-31T01:53:47;6.10;;;1.67;;
23113;SDS011;11726;50.122;8.832;2023-03-31T01:56:31;9.43;;;2.53;;
23113;SDS011;11726;50.122;8.832;2023-03-31T02:01:44;5.38;;;1.70;;
23113;SDS011;11726;50.122;8.832;2023-03-31T02:04:15;6.60;;;1.93;;
23113;SDS011;11726;50.122;8.832;2023-03-31T02:06:47;8.60;;;2.22;;
23113;SDS011;11726;50.122;8.832;2023-03-31T02:11:50;11.27;;;2.50;;
23113;SDS011;11726;50.122;8.832;2023-03-31T02:14:19;9.43;;;2.10;;
23113;SDS011;11726;50.122;8.832;2023-03-31T02:16:49;6.35;;;1.77;;
23113;SDS011;11726;50.122;8.832;2023-03-31T02:19:24;7.63;;;1.83;;
23113;SDS011;11726;50.122;8.832;2023-03-31T02:21:54;5.32;;;1.52;;
23113;SDS011;11726;50.122;8.832;2023-03-31T02:24:22;7.40;;;1.73;;
23113;SDS011;11726;50.122;8.832;2023-03-31T02:27:01;7.50;;;1.75;;
23113;SDS011;11726;50.122;8.832;2023-03-31T02:29:29;7.03;;;1.95;;
23113;SDS011;11726;50.122;8.832;2023-03-31T02:34:41;7.22;;;2.08;;
23113;SDS011;11726;50.122;8.832;2023-03-31T02:37:07;8.75;;;2.00;;
23113;SDS011;11726;50.122;8.832;2023-03-31T02:39:35;8.15;;;2.30;;
23113;SDS011;11726;50.122;8.832;2023-03-31T02:42:05;6.32;;;1.83;;
23113;SDS011;11726;50.122;8.832;2023-03-31T02:44:36;7.15;;;1.95;;
23113;SDS011;11726;50.122;8.832;2023-03-31T02:47:05;7.10;;;1.85;;
23113;SDS011;11726;50.122;8.832;2023-03-31T02:49:34;9.25;;;1.80;;
23113;SDS011;11726;50.122;8.832;2023-03-31T03:05:40;5.45;;;1.90;;
23113;SDS011;11726;50.122;8.832;2023-03-31T03:08:46;9.02;;;1.80;;
23113;SDS011;11726;50.122;8.832;2023-03-31T03:14:08;7.32;;;1.95;;
23113;SDS011;11726;50.122;8.832;2023-03-31T03:16:43;11.68;;;2.38;;
23113;SDS011;11726;50.122;8.832;2023-03-31T03:19:17;9.50;;;2.17;;
23113;SDS011;11726;50.122;8.832;2023-03-31T03:21:46;8.00;;;1.92;;
23113;SDS011;11726;50.122;8.832;2023-03-31T03:24:14;9.15;;;1.92;;
23113;SDS011;11726;50.122;8.832;2023-03-31T03:26:42;7.65;;;1.70;;
23113;SDS011;11726;50.122;8.832;2023-03-31T03:29:13;13.02;;;2.53;;
23113;SDS011;11726;50.122;8.832;2023-03-31T03:31:40;8.05;;;1.67;;
23113;SDS011;11726;50.122;8.832;2023-03-31T03:34:07;6.32;;;2.10;;
23113;SDS011;11726;50.122;8.832;2023-03-31T03:36:37;7.22;;;1.60;;
23113;SDS011;11726;50.122;8.832;2023-03-31T03:39:05;11.50;;;1.95;;
23113;SDS011;11726;50.122;8.832;2023-03-31T03:41:33;11.27;;;2.40;;
23113;SDS011;11726;50.122;8.832;2023-03-31T03:43:59;5.95;;;1.83;;
23113;SDS011;11726;50.122;8.832;2023-03-31T03:46:26;8.00;;;1.63;;
23113;SDS011;11726;50.122;8.832;2023-03-31T03:48:53;9.05;;;2.13;;
23113;SDS011;11726;50.122;8.832;2023-03-31T03:51:21;7.82;;;2.20;;
23113;SDS011;11726;50.122;8.832;2023-03-31T03:53:47;8.85;;;1.98;;
23113;SDS011;11726;50.122;8.832;2023-03-31T03:56:14;9.20;;;2.30;;
23113;SDS011;11726;50.122;8.832;2023-03-31T03:58:41;13.52;;;2.97;;
23113;SDS011;11726;50.122;8.832;2023-03-31T04:01:08;11.10;;;2.78;;
23113;SDS011;11726;50.122;8.832;2023-03-31T04:03:34;9.27;;;2.20;;
23113;SDS011;11726;50.122;8.832;2023-03-31T04:06:01;12.43;;;2.33;;
23113;SDS011;11726;50.122;8.832;2023-03-31T04:08:28;10.70;;;2.78;;
23113;SDS011;11726;50.122;8.832;2023-03-31T04:10:54;10.10;;;2.17;;
23113;SDS011;11726;50.122;8.832;2023-03-31T04:13:21;9.35;;;2.45;;
23113;SDS011;11726;50.122;8.832;2023-03-31T04:15:47;11.68;;;2.40;;
23113;SDS011;11726;50.122;8.832;2023-03-31T04:18:14;10.38;;;2.20;;
23113;SDS011;11726;50.122;8.832;2023-03-31T04:20:48;9.23;;;2.65;;
23113;SDS011;11726;50.122;8.832;2023-03-31T04:23:20;10.05;;;2.33;;
23113;SDS011;11726;50.122;8.832;2023-03-31T04:25:51;7.30;;;2.25;;
23113;SDS011;11726;50.122;8.832;2023-03-31T04:28:18;14.32;;;2.85;;
23113;SDS011;11726;50.122;8.832;2023-03-31T04:30:45;12.50;;;2.70;;
23113;SDS011;11726;50.122;8.832;2023-03-31T04:33:11;7.80;;;2.60;;
23113;SDS011;11726;50.122;8.832;2023-03-31T04:35:40;11.00;;;2.50;;
23113;SDS011;11726;50.122;8.832;2023-03-31T04:38:15;12.60;;;2.63;;
23113;SDS011;11726;50.122;8.832;2023-03-31T04:40:50;10.55;;;2.10;;
23113;SDS011;11726;50.122;8.832;2023-03-31T04:43:18;7.97;;;2.08;;
23113;SDS011;11726;50.122;8.832;2023-03-31T04:45:46;9.50;;;2.50;;
23113;SDS011;11726;50.122;8.832;2023-03-31T04:48:12;9.98;;;2.28;;
23113;SDS011;11726;50.122;8.832;2023-03-31T04:50:39;10.02;;;2.10;;
23113;SDS011;11726;50.122;8.832;2023-03-31T04:53:06;8.10;;;2.35;;
23113;SDS011;11726;50.122;8.832;2023-03-31T04:55:33;15.27;;;2.35;;
23113;SDS011;11726;50.122;8.832;2023-03-31T04:58:00;12.88;;;2.97;;
23113;SDS011;11726;50.122;8.832;2023-03-31T05:00:27;9.00;;;2.40;;
23113;SDS011;11726;50.122;8.832;2023-03-31T05:02:54;10.93;;;2.38;;
23113;SDS011;11726;50.122;8.832;2023-03-31T05:05:20;8.50;;;2.40;;
23113;SDS011;11726;50.122;8.832;2023-03-31T05:07:47;11.82;;;2.80;;
23113;SDS011;11726;50.122;8.832;2023-03-31T05:10:14;9.95;;;2.33;;
23113;SDS011;11726;50.122;8.832;2023-03-31T05:12:40;13.18;;;2.55;;
23113;SDS011;11726;50.122;8.832;2023-03-31T05:15:07;12.18;;;2.83;;
23113;SDS011;11726;50.122;8.832;2023-03-31T05:17:35;10.20;;;2.38;;
23113;SDS011;11726;50.122;8.832;2023-03-31T05:20:02;7.53;;;2.20;;
23113;SDS011;11726;50.122;8.832;2023-03-31T05:22:34;8.32;;;2.38;;
23113;SDS011;11726;50.122;8.832;2023-03-31T05:25:03;10.13;;;2.38;;
23113;SDS011;11726;50.122;8.832;2023-03-31T05:27:31;7.63;;;2.45;;
23113;SDS011;11726;50.122;8.832;2023-03-31T05:29:58;10.20;;;2.10;;
23113;SDS011;11726;50.122;8.832;2023-03-31T05:32:25;10.30;;;2.67;;
23113;SDS011;11726;50.122;8.832;2023-03-31T05:34:52;7.68;;;2.50;;
23113;SDS011;11726;50.122;8.832;2023-03-31T05:37:22;9.20;;;2.47;;
23113;SDS011;11726;50.122;8.832;2023-03-31T05:39:50;10.90;;;2.92;;
23113;SDS011;11726;50.122;8.832;2023-03-31T05:42:17;11.52;;;2.65;;
23113;SDS011;11726;50.122;8.832;2023-03-31T05:44:44;11.25;;;2.25;;
23113;SDS011;11726;50.122;8.832;2023-03-31T05:47:11;8.68;;;2.58;;
23113;SDS011;11726;50.122;8.832;2023-03-31T05:49:38;13.05;;;4.22;;
23113;SDS011;11726;50.122;8.832;2023-03-31T05:52:05;9.40;;;2.80;;
23113;SDS011;11726;50.122;8.832;2023-03-31T05:54:33;11.77;;;2.95;;
23113;SDS011;11726;50.122;8.832;2023-03-31T05:57:00;10.82;;;2.80;;
23113;SDS011;11726;50.122;8.832;2023-03-31T05:59:27;11.35;;;2.80;;
23113;SDS011;11726;50.122;8.832;2023-03-31T06:01:53;11.02;;;2.65;;
23113;SDS011;11726;50.122;8.832;2023-03-31T06:04:20;9.98;;;2.28;;
23113;SDS011;11726;50.122;8.832;2023-03-31T06:06:47;9.43;;;2.25;;
23113;SDS011;11726;50.122;8.832;2023-03-31T06:09:16;8.15;;;2.40;;
23113;SDS011;11726;50.122;8.832;2023-03-31T06:11:43;10.25;;;2.40;;
23113;SDS011;11726;50.122;8.832;2023-03-31T06:14:10;10.70;;;2.70;;
23113;SDS011;11726;50.122;8.832;2023-03-31T06:16:36;7.82;;;2.55;;
23113;SDS011;11726;50.122;8.832;2023-03-31T06:19:03;8.00;;;2.75;;
23113;SDS011;11726;50.122;8.832;2023-03-31T06:21:31;8.65;;;2.67;;
23113;SDS011;11726;50.122;8.832;2023-03-31T06:23:58;9.82;;;2.72;;
23113;SDS011;11726;50.122;8.832;2023-03-31T06:26:26;9.43;;;2.90;;
23113;SDS011;11726;50.122;8.832;2023-03-31T06:28:53;11.77;;;2.90;;
23113;SDS011;11726;50.122;8.832;2023-03-31T06:31:21;10.98;;;2.92;;
23113;SDS011;11726;50.122;8.832;2023-03-31T06:33:49;9.80;;;2.95;;
23113;SDS011;11726;50.122;8.832;2023-03-31T06:36:17;10.35;;;2.90;;
23113;SDS011;11726;50.122;8.832;2023-03-31T06:38:46;10.40;;;2.78;;
23113;SDS011;11726;50.122;8.832;2023-03-31T06:41:14;15.32;;;3.15;;
23113;SDS011;11726;50.122;8.832;2023-03-31T06:43:42;11.05;;;2.95;;
23113;SDS011;11726;50.122;8.832;2023-03-31T06:46:09;15.40;;;3.70;;
23113;SDS011;11726;50.122;8.832;2023-03-31T06:48:36;14.88;;;3.63;;
23113;SDS011;11726;50.122;8.832;2023-03-31T06:51:04;8.45;;;3.70;;
23113;SDS011;11726;50.122;8.832;2023-03-31T06:53:32;11.60;;;3.47;;
23113;SDS011;11726;50.122;8.832;2023-03-31T06:56:00;12.65;;;3.75;;
23113;SDS011;11726;50.122;8.832;2023-03-31T06:58:27;9.13;;;3.10;;
23113;SDS011;11726;50.122;8.832;2023-03-31T07:00:56;10.02;;;3.17;;
23113;SDS011;11726;50.122;8.832;2023-03-31T07:03:23;11.73;;;3.55;;
23113;SDS011;11726;50.122;8.832;2023-03-31T07:05:51;11.90;;;3.70;;
23113;SDS011;11726;50.122;8.832;2023-03-31T07:08:19;12.38;;;3.83;;
23113;SDS011;11726;50.122;8.832;2023-03-31T07:10:47;12.80;;;3.70;;
23113;SDS011;11726;50.122;8.832;2023-03-31T07:13:14;13.20;;;3.47;;
23113;SDS011;11726;50.122;8.832;2023-03-31T07:15:42;10.35;;;2.70;;
23113;SDS011;11726;50.122;8.832;2023-03-31T07:18:09;9.70;;;3.28;;
23113;SDS011;11726;50.122;8.832;2023-03-31T07:20:37;10.65;;;3.20;;
23113;SDS011;11726;50.122;8.832;2023-03-31T07:23:04;8.10;;;3.05;;
23113;SDS011;11726;50.122;8.832;2023-03-31T07:25:31;9.77;;;3.10;;
23113;SDS011;11726;50.122;8.832;2023-03-31T07:27:58;10.60;;;2.88;;
23113;SDS011;11726;50.122;8.832;2023-03-31T07:30:25;10.07;;;2.90;;
23113;SDS011;11726;50.122;8.832;2023-03-31T07:32:52;9.80;;;2.95;;
23113;SDS011;11726;50.122;8.832;2023-03-31T07:35:19;7.75;;;2.85;;
23113;SDS011;11726;50.122;8.832;2023-03-31T07:37:48;9.68;;;3.22;;
23113;SDS011;11726;50.122;8.832;2023-03-31T07:40:20;7.80;;;2.70;;
23113;SDS011;11726;50.122;8.832;2023-03-31T07:42:49;8.63;;;2.95;;
23113;SDS011;11726;50.122;8.832;2023-03-31T07:45:18;8.95;;;2.95;;
23113;SDS011;11726;50.122;8.832;2023-03-31T07:47:46;12.90;;;3.50;;
23113;SDS011;11726;50.122;8.832;2023-03-31T07:50:14;13.25;;;3.97;;
23113;SDS011;11726;50.122;8.832;2023-03-31T07:52:42;9.63;;;3.53;;
23113;SDS011;11726;50.122;8.832;2023-03-31T07:55:12;7.25;;;3.58;;
23113;SDS011;11726;50.122;8.832;2023-03-31T07:57:39;14.82;;;6.18;;
23113;SDS011;11726;50.122;8.832;2023-03-31T08:00:06;12.68;;;5.80;;
23113;SDS011;11726;50.122;8.832;2023-03-31T08:02:35;12.07;;;5.15;;
23113;SDS011;11726;50.122;8.832;2023-03-31T08:05:04;8.30;;;3.95;;
23113;SDS011;11726;50.122;8.832;2023-03-31T08:07:38;8.82;;;3.97;;
23113;SDS011;11726;50.122;8.832;2023-03-31T08:10:07;8.63;;;4.30;;
23113;SDS011;11726;50.122;8.832;2023-03-31T08:12:37;10.35;;;4.45;;
23113;SDS011;11726;50.122;8.832;2023-03-31T08:15:04;8.77;;;4.45;;
23113;SDS011;11726;50.122;8.832;2023-03-31T08:17:31;9.40;;;3.90;;
23113;SDS011;11726;50.122;8.832;2023-03-31T08:19:58;7.57;;;3.83;;
23113;SDS011;11726;50.122;8.832;2023-03-31T08:22:31;10.00;;;4.18;;
23113;SDS011;11726;50.122;8.832;2023-03-31T08:24:58;8.55;;;4.07;;
23113;SDS011;11726;50.122;8.832;2023-03-31T08:27:24;9.85;;;4.28;;
23113;SDS011;11726;50.122;8.832;2023-03-31T08:29:51;10.98;;;4.30;;
23113;SDS011;11726;50.122;8.832;2023-03-31T08:32:20;9.85;;;4.47;;
23113;SDS011;11726;50.122;8.832;2023-03-31T08:34:48;9.13;;;4.60;;
23113;SDS011;11726;50.122;8.832;2023-03-31T08:37:15;7.93;;;4.20;;
23113;SDS011;11726;50.122;8.832;2023-03-31T08:39:41;9.80;;;4.32;;
23113;SDS011;11726;50.122;8.832;2023-03-31T08:42:14;12.90;;;4.80;;
23113;SDS011;11726;50.122;8.832;2023-03-31T08:47:26;11.75;;;4.72;;
23113;SDS011;11726;50.122;8.832;2023-03-31T08:49:59;8.25;;;4.53;;
23113;SDS011;11726;50.122;8.832;2023-03-31T08:52:39;9.13;;;4.53;;
23113;SDS011;11726;50.122;8.832;2023-03-31T08:55:12;7.28;;;4.22;;
23113;SDS011;11726;50.122;8.832;2023-03-31T09:00:21;8.80;;;3.85;;
23113;SDS011;11726;50.122;8.832;2023-03-31T09:02:55;11.07;;;4.30;;
23113;SDS011;11726;50.122;8.832;2023-03-31T09:18:53;7.15;;;3.63;;
23113;SDS011;11726;50.122;8.832;2023-03-31T09:21:31;8.43;;;3.45;;
23113;SDS011;11726;50.122;8.832;2023-03-31T09:24:11;4.93;;;2.95;;
23113;SDS011;11726;50.122;8.832;2023-03-31T09:26:52;7.15;;;2.95;;
23113;SDS011;11726;50.122;8.832;2023-03-31T09:32:20;6.30;;;3.20;;
23113;SDS011;11726;50.122;8.832;2023-03-31T09:34:50;5.80;;;2.38;;
23113;SDS011;11726;50.122;8.832;2023-03-31T09:37:22;4.18;;;2.10;;
23113;SDS011;11726;50.122;8.832;2023-03-31T09:39:52;4.43;;;2.38;;
23113;SDS011;11726;50.122;8.832;2023-03-31T09:42:18;4.35;;;2.20;;
23113;SDS011;11726;50.122;8.832;2023-03-31T09:44:45;5.68;;;2.08;;
23113;SDS011;11726;50.122;8.832;2023-03-31T09:47:23;7.18;;;2.50;;
23113;SDS011;11726;50.122;8.832;2023-03-31T09:49:58;4.20;;;2.10;;
23113;SDS011;11726;50.122;8.832;2023-03-31T09:54:57;4.88;;;2.30;;
23113;SDS011;11726;50.122;8.832;2023-03-31T10:10:43;5.05;;;2.08;;
23113;SDS011;11726;50.122;8.832;2023-03-31T10:13:13;6.75;;;2.25;;
23113;SDS011;11726;50.122;8.832;2023-03-31T10:15:44;5.05;;;2.08;;
23113;SDS011;11726;50.122;8.832;2023-03-31T10:18:14;6.45;;;2.40;;
23113;SDS011;11726;50.122;8.832;2023-03-31T10:20:44;9.40;;;2.65;;
23113;SDS011;11726;50.122;8.832;2023-03-31T10:23:16;7.55;;;2.30;;
23113;SDS011;11726;50.122;8.832;2023-03-31T10:25:48;9.85;;;2.60;;
23113;SDS011;11726;50.122;8.832;2023-03-31T10:28:16;7.85;;;2.40;;
23113;SDS011;11726;50.122;8.832;2023-03-31T10:30:46;6.90;;;2.42;;
23113;SDS011;11726;50.122;8.832;2023-03-31T10:33:16;10.07;;;2.63;;
23113;SDS011;11726;50.122;8.832;2023-03-31T10:35:54;6.82;;;2.60;;
23113;SDS011;11726;50.122;8.832;2023-03-31T10:38:28;7.97;;;2.15;;
23113;SDS011;11726;50.122;8.832;2023-03-31T10:40:57;4.72;;;2.30;;
23113;SDS011;11726;50.122;8.832;2023-03-31T10:43:28;6.88;;;2.58;;
23113;SDS011;11726;50.122;8.832;2023-03-31T10:45:59;6.63;;;2.20;;
23113;SDS011;11726;50.122;8.832;2023-03-31T10:48:30;15.15;;;5.85;;
23113;SDS011;11726;50.122;8.832;2023-03-31T10:51:20;11.63;;;3.03;;
23113;SDS011;11726;50.122;8.832;2023-03-31T10:53:47;3.63;;;1.10;;
23113;SDS011;11726;50.122;8.832;2023-03-31T10:56:33;7.65;;;2.00;;
23113;SDS011;11726;50.122;8.832;2023-03-31T10:59:11;5.20;;;1.08;;
23113;SDS011;11726;50.122;8.832;2023-03-31T11:10:38;3.40;;;1.40;;
23113;SDS011;11726;50.122;8.832;2023-03-31T11:13:53;3.58;;;1.42;;
23113;SDS011;11726;50.122;8.832;2023-03-31T11:16:27;4.63;;;1.20;;
23113;SDS011;11726;50.122;8.832;2023-03-31T11:22:08;3.53;;;0.82;;
23113;SDS011;11726;50.122;8.832;2023-03-31T11:28:10;2.08;;;0.77;;
23113;SDS011;11726;50.122;8.832;2023-03-31T11:33:52;3.38;;;0.80;;
23113;SDS011;11726;50.122;8.832;2023-03-31T11:41:56;5.57;;;1.15;;
23113;SDS011;11726;50.122;8.832;2023-03-31T11:44:29;5.13;;;1.25;;
23113;SDS011;11726;50.122;8.832;2023-03-31T11:47:07;7.05;;;1.50;;
23113;SDS011;11726;50.122;8.832;2023-03-31T11:49:47;4.07;;;1.23;;
23113;SDS011;11726;50.122;8.832;2023-03-31T11:52:18;6.22;;;1.35;;
23113;SDS011;11726;50.122;8.832;2023-03-31T11:57:35;7.90;;;1.77;;
23113;SDS011;11726;50.122;8.832;2023-03-31T12:00:22;8.95;;;1.80;;
23113;SDS011;11726;50.122;8.832;2023-03-31T12:03:36;7.97;;;1.70;;
23113;SDS011;11726;50.122;8.832;2023-03-31T12:06:26;8.73;;;1.90;;
23113;SDS011;11726;50.122;8.832;2023-03-31T12:17:10;7.20;;;2.05;;
23113;SDS011;11726;50.122;8.832;2023-03-31T12:19:44;9.25;;;2.28;;
23113;SDS011;11726;50.122;8.832;2023-03-31T12:24:47;11.27;;;2.38;;
23113;SDS011;11726;50.122;8.832;2023-03-31T12:32:24;10.05;;;3.00;;
23113;SDS011;11726;50.122;8.832;2023-03-31T12:34:58;10.65;;;2.53;;
23113;SDS011;11726;50.122;8.832;2023-03-31T12:42:58;10.25;;;2.80;;
23113;SDS011;11726;50.122;8.832;2023-03-31T12:45:30;9.23;;;2.45;;
23113;SDS011;11726;50.122;8.832;2023-03-31T12:55:53;8.68;;;2.00;;
23113;SDS011;11726;50.122;8.832;2023-03-31T13:01:08;13.07;;;2.60;;
23113;SDS011;11726;50.122;8.832;2023-03-31T13:03:47;11.98;;;2.45;;
23113;SDS011;11726;50.122;8.832;2023-03-31T13:07:02;8.45;;;2.28;;
23113;SDS011;11726;50.122;8.832;2023-03-31T13:09:03;9.57;;;2.00;;
23113;SDS011;11726;50.122;8.832;2023-03-31T13:11:37;7.45;;;2.50;;
23113;SDS011;11726;50.122;8.832;2023-03-31T13:14:11;8.38;;;2.40;;
23113;SDS011;11726;50.122;8.832;2023-03-31T13:16:47;9.65;;;2.20;;
23113;SDS011;11726;50.122;8.832;2023-03-31T13:19:26;9.88;;;2.20;;
23113;SDS011;11726;50.122;8.832;2023-03-31T13:21:57;13.52;;;2.13;;
23113;SDS011;11726;50.122;8.832;2023-03-31T13:24:24;9.18;;;2.40;;
23113;SDS011;11726;50.122;8.832;2023-03-31T13:26:53;10.90;;;2.13;;
23113;SDS011;11726;50.122;8.832;2023-03-31T13:29:25;7.78;;;1.85;;
23113;SDS011;11726;50.122;8.832;2023-03-31T13:32:16;7.50;;;2.10;;
23113;SDS011;11726;50.122;8.832;2023-03-31T13:34:48;10.90;;;2.08;;
23113;SDS011;11726;50.122;8.832;2023-03-31T13:37:38;9.57;;;2.38;;
23113;SDS011;11726;50.122;8.832;2023-03-31T13:40:47;12.75;;;2.65;;
23113;SDS011;11726;50.122;8.832;2023-03-31T13:48:58;10.48;;;2.50;;
23113;SDS011;11726;50.122;8.832;2023-03-31T13:51:31;5.18;;;1.50;;
23113;SDS011;11726;50.122;8.832;2023-03-31T14:07:40;3.30;;;0.80;;
23113;SDS011;11726;50.122;8.832;2023-03-31T14:10:30;1.52;;;0.57;;
23113;SDS011;11726;50.122;8.832;2023-03-31T14:15:44;2.58;;;0.60;;
23113;SDS011;11726;50.122;8.832;2023-03-31T14:18:15;1.20;;;0.40;;
23113;SDS011;11726;50.122;8.832;2023-03-31T14:20:54;3.58;;;0.70;;
23113;SDS011;11726;50.122;8.832;2023-03-31T14:31:37;1.00;;;0.50;;
23113;SDS011;11726;50.122;8.832;2023-03-31T14:34:32;2.42;;;0.80;;
23113;SDS011;11726;50.122;8.832;2023-03-31T14:37:03;3.67;;;0.70;;
23113;SDS011;11726;50.122;8.832;2023-03-31T14:39:35;1.90;;;0.70;;
23113;SDS011;11726;50.122;8.832;2023-03-31T14:42:12;2.30;;;0.60;;
23113;SDS011;11726;50.122;8.832;2023-03-31T14:44:46;2.97;;;1.00;;
23113;SDS011;11726;50.122;8.832;2023-03-31T14:47:14;2.22;;;0.82;;
23113;SDS011;11726;50.122;8.832;2023-03-31T14:49:45;3.30;;;0.80;;
23113;SDS011;11726;50.122;8.832;2023-03-31T14:52:14;2.95;;;0.88;;
23113;SDS011;11726;50.122;8.832;2023-03-31T14:54:45;3.15;;;0.80;;
23113;SDS011;11726;50.122;8.832;2023-03-31T14:57:16;4.68;;;0.90;;
23113;SDS011;11726;50.122;8.832;2023-03-31T14:59:51;2.65;;;0.95;;
23113;SDS011;11726;50.122;8.832;2023-03-31T15:02:22;3.92;;;1.00;;
23113;SDS011;11726;50.122;8.832;2023-03-31T15:05:00;4.50;;;1.00;;
23113;SDS011;11726;50.122;8.832;2023-03-31T15:07:30;3.42;;;1.00;;
23113;SDS011;11726;50.122;8.832;2023-03-31T15:09:57;5.18;;;1.05;;
23113;SDS011;11726;50.122;8.832;2023-03-31T15:12:24;4.25;;;1.15;;
23113;SDS011;11726;50.122;8.832;2023-03-31T15:14:56;4.10;;;1.02;;
23113;SDS011;11726;50.122;8.832;2023-03-31T15:17:30;2.17;;;0.73;;
23113;SDS011;11726;50.122;8.832;2023-03-31T15:20:16;1.88;;;0.73;;
23113;SDS011;11726;50.122;8.832;2023-03-31T15:22:46;3.55;;;1.00;;
23113;SDS011;11726;50.122;8.832;2023-03-31T15:25:12;2.97;;;0.82;;
23113;SDS011;11726;50.122;8.832;2023-03-31T15:27:43;3.53;;;1.08;;
23113;SDS011;11726;50.122;8.832;2023-03-31T15:30:25;5.82;;;1.05;;
23113;SDS011;11726;50.122;8.832;2023-03-31T15:32:54;5.32;;;1.33;;
23113;SDS011;11726;50.122;8.832;2023-03-31T15:35:36;7.45;;;1.42;;
23113;SDS011;11726;50.122;8.832;2023-03-31T15:38:04;4.85;;;0.98;;
23113;SDS011;11726;50.122;8.832;2023-03-31T15:40:35;3.50;;;0.70;;
23113;SDS011;11726;50.122;8.832;2023-03-31T15:43:07;4.80;;;0.80;;
23113;SDS011;11726;50.122;8.832;2023-03-31T15:45:52;5.20;;;0.80;;
23113;SDS011;11726;50.122;8.832;2023-03-31T15:48:32;2.90;;;1.20;;
23113;SDS011;11726;50.122;8.832;2023-03-31T15:51:02;4.57;;;1.15;;
23113;SDS011;11726;50.122;8.832;2023-03-31T15:53:47;2.67;;;0.73;;
23113;SDS011;11726;50.122;8.832;2023-03-31T15:56:28;6.57;;;2.30;;
23113;SDS011;11726;50.122;8.832;2023-03-31T15:59:21;18.10;;;9.82;;
23113;SDS011;11726;50.122;8.832;2023-03-31T16:01:59;3.30;;;1.00;;
23113;SDS011;11726;50.122;8.832;2023-03-31T16:04:29;11.98;;;4.68;;
23113;SDS011;11726;50.122;8.832;2023-03-31T16:12:21;7.53;;;2.10;;
23113;SDS011;11726;50.122;8.832;2023-03-31T16:14:53;5.43;;;1.27;;
23113;SDS011;11726;50.122;8.832;2023-03-31T16:17:28;8.43;;;1.60;;
23113;SDS011;11726;50.122;8.832;2023-03-31T16:20:00;9.23;;;1.60;;
23113;SDS011;11726;50.122;8.832;2023-03-31T16:22:35;6.40;;;1.70;;
23113;SDS011;11726;50.122;8.832;2023-03-31T16:25:16;7.65;;;1.40;;
23113;SDS011;11726;50.122;8.832;2023-03-31T16:27:56;4.32;;;1.23;;
23113;SDS011;11726;50.122;8.832;2023-03-31T16:30:35;6.13;;;1.48;;
23113;SDS011;11726;50.122;8.832;2023-03-31T16:35:46;3.75;;;1.20;;
23113;SDS011;11726;50.122;8.832;2023-03-31T16:38:16;6.97;;;1.30;;
23113;SDS011;11726;50.122;8.832;2023-03-31T16:40:44;6.82;;;1.30;;
23113;SDS011;11726;50.122;8.832;2023-03-31T16:43:19;5.45;;;1.17;;
23113;SDS011;11726;50.122;8.832;2023-03-31T16:45:54;4.70;;;1.25;;
23113;SDS011;11726;50.122;8.832;2023-03-31T16:48:23;7.15;;;1.23;;
23113;SDS011;11726;50.122;8.832;2023-03-31T16:50:53;5.05;;;0.90;;
23113;SDS011;11726;50.122;8.832;2023-03-31T16:53:23;5.72;;;1.23;;
23113;SDS011;11726;50.122;8.832;2023-03-31T16:55:51;3.67;;;1.05;;
23113;SDS011;11726;50.122;8.832;2023-03-31T16:58:18;7.95;;;1.50;;
23113;SDS011;11726;50.122;8.832;2023-03-31T17:00:46;5.68;;;1.50;;
23113;SDS011;11726;50.122;8.832;2023-03-31T17:03:12;5.22;;;1.45;;
23113;SDS011;11726;50.122;8.832;2023-03-31T17:05:42;7.22;;;1.60;;
23113;SDS011;11726;50.122;8.832;2023-03-31T17:08:11;4.60;;;1.30;;
23113;SDS011;11726;50.122;8.832;2023-03-31T17:10:39;4.88;;;1.38;;
23113;SDS011;11726;50.122;8.832;2023-03-31T17:13:06;7.20;;;1.60;;
23113;SDS011;11726;50.122;8.832;2023-03-31T17:15:34;7.82;;;1.75;;
23113;SDS011;11726;50.122;8.832;2023-03-31T17:18:02;6.18;;;1.50;;
23113;SDS011;11726;50.122;8.832;2023-03-31T17:20:29;5.40;;;1.25;;
23113;SDS011;11726;50.122;8.832;2023-03-31T17:22:56;7.85;;;1.70;;
23113;SDS011;11726;50.122;8.832;2023-03-31T17:25:23;4.82;;;1.42;;
23113;SDS011;11726;50.122;8.832;2023-03-31T17:27:51;9.07;;;1.70;;
23113;SDS011;11726;50.122;8.832;2023-03-31T17:30:17;8.82;;;1.55;;
23113;SDS011;11726;50.122;8.832;2023-03-31T17:32:44;5.97;;;1.77;;
23113;SDS011;11726;50.122;8.832;2023-03-31T17:35:11;6.95;;;1.73;;
23113;SDS011;11726;50.122;8.832;2023-03-31T17:37:46;4.72;;;1.45;;
23113;SDS011;11726;50.122;8.832;2023-03-31T17:40:15;7.88;;;1.52;;
23113;SDS011;11726;50.122;8.832;2023-03-31T17:42:42;6.55;;;1.40;;
23113;SDS011;11726;50.122;8.832;2023-03-31T17:45:09;4.20;;;1.45;;
23113;SDS011;11726;50.122;8.832;2023-03-31T17:47:37;6.05;;;1.63;;
23113;SDS011;11726;50.122;8.832;2023-03-31T17:50:04;7.05;;;1.95;;
23113;SDS011;11726;50.122;8.832;2023-03-31T17:52:31;7.72;;;1.77;;
23113;SDS011;11726;50.122;8.832;2023-03-31T17:54:59;6.68;;;1.65;;
23113;SDS011;11726;50.122;8.832;2023-03-31T17:57:25;7.45;;;1.90;;
23113;SDS011;11726;50.122;8.832;2023-03-31T17:59:52;9.20;;;1.50;;
23113;SDS011;11726;50.122;8.832;2023-03-31T18:02:19;7.55;;;1.67;;
23113;SDS011;11726;50.122;8.832;2023-03-31T18:04:45;5.28;;;1.80;;
23113;SDS011;11726;50.122;8.832;2023-03-31T18:07:12;11.18;;;1.80;;